Aeroporto :
LOGIN :

Iscrizione | Disclaimer

   EN    FR    IT 

 










Sommario :    VFR   VFR Marginale   IFR   IFR Intensivo   IFR Molto Intensivo
Visibilità : 
Base nubi : 
>= 8 km
>= 3000ft
5 / 8 km
1000 / 3000 ft
1500m / 5 km
500 / 1000 ft
800 / 1500m
200 / 500 ft
< 800m
< 200 ft
Simboli :   Temporali  Nebbia  Neve Forte  Precipitazioni Forti  Vento > 20 kt
SIGMETs :   Varie  Temporali  Ghiacco  Turbolenza  Onda orograficha  Ceneri Vulcaniche






- Altitudine del aeroporto : 123 ft
- Codice IATA : BLQ


LIPE - Bologna Guglielmo Marconi

ULTIMO METAR :
  • 200120Z 27007KT 2000 BR BKN002 BKN010 10/09 Q1015

METARs OBSOLETI :
  • 200050Z 26007KT 2000 BR BKN002 BKN010 10/09 Q1015
  • 200020Z 25007KT 1800 BR BKN002 BKN010 10/10 Q1015
  • 192350Z 26007KT 0700 R12/P1500N R30/P1500N FG BKN002 BKN010 10/10 Q1015
  • 192320Z 25006KT 0400 R12/1200U R30/1100D FG BKN002 BKN010 10/10 Q1015
  • 192250Z VRB02KT 1800 BR BKN002 BKN010 11/11 Q1015

TAF TAF LIPE
Valido dal 20 a 00 ore il 21 a 00 ore UTC


192300Z 2000/2024 VRB03KT 1500 BR SCT003 BKN014
BECMG 2000/2003 0400 FG
BECMG 2010/2012 6000 SCT020
BECMG 2020/2022 3000 BR



MetMap, La meteo Aeronautica in un colpo d'occhio ! - Copyright ORBIFLY Dicembre 2007 - Disclaimer

ORBIFLY MET'MAP TEAM :

Programmazione e sviluppo : Alexandra Zaïnal
Concezione e sviluppo : Baudouin d'Aumeries
Co-Programmazione e sviluppo : Marc-Olivier Méhu
Supporto tecnico e logistico : Manuel Goepfert
Aiuto per la traduzione : Arnaldo La Scala

Contatto : metmap@orbifly.com




FONTI E CREDITI :

   NOAA